sensor_id;sensor_type;location;lat;lon;timestamp;P1;durP1;ratioP1;P2;durP2;ratioP2
58097;SDS011;43913;55.940;37.504;2023-03-08T00:01:31;20.13;;;13.32;;
58097;SDS011;43913;55.940;37.504;2023-03-08T00:03:57;21.90;;;11.38;;
58097;SDS011;43913;55.940;37.504;2023-03-08T00:06:23;23.60;;;13.10;;
58097;SDS011;43913;55.940;37.504;2023-03-08T00:08:53;22.30;;;12.48;;
58097;SDS011;43913;55.940;37.504;2023-03-08T00:11:19;18.77;;;12.52;;
58097;SDS011;43913;55.940;37.504;2023-03-08T00:13:45;28.85;;;14.05;;
58097;SDS011;43913;55.940;37.504;2023-03-08T00:16:11;25.10;;;13.55;;
58097;SDS011;43913;55.940;37.504;2023-03-08T00:18:38;22.13;;;12.77;;
58097;SDS011;43913;55.940;37.504;2023-03-08T00:21:08;23.48;;;12.05;;
58097;SDS011;43913;55.940;37.504;2023-03-08T00:23:36;22.75;;;12.73;;
58097;SDS011;43913;55.940;37.504;2023-03-08T00:26:02;20.35;;;12.60;;
58097;SDS011;43913;55.940;37.504;2023-03-08T00:28:28;23.30;;;11.40;;
58097;SDS011;43913;55.940;37.504;2023-03-08T00:30:54;19.70;;;12.20;;
58097;SDS011;43913;55.940;37.504;2023-03-08T00:33:21;17.70;;;10.88;;
58097;SDS011;43913;55.940;37.504;2023-03-08T00:35:57;19.35;;;11.38;;
58097;SDS011;43913;55.940;37.504;2023-03-08T00:38:23;18.20;;;11.90;;
58097;SDS011;43913;55.940;37.504;2023-03-08T00:40:49;21.40;;;12.77;;
58097;SDS011;43913;55.940;37.504;2023-03-08T00:43:15;23.27;;;13.38;;
58097;SDS011;43913;55.940;37.504;2023-03-08T00:45:40;21.70;;;12.90;;
58097;SDS011;43913;55.940;37.504;2023-03-08T00:48:06;22.42;;;14.82;;
58097;SDS011;43913;55.940;37.504;2023-03-08T00:50:32;26.13;;;15.15;;
58097;SDS011;43913;55.940;37.504;2023-03-08T00:52:57;27.35;;;15.05;;
58097;SDS011;43913;55.940;37.504;2023-03-08T00:55:23;29.23;;;16.13;;
58097;SDS011;43913;55.940;37.504;2023-03-08T00:57:49;25.67;;;16.25;;
58097;SDS011;43913;55.940;37.504;2023-03-08T01:00:14;30.02;;;17.25;;
58097;SDS011;43913;55.940;37.504;2023-03-08T01:02:40;31.15;;;16.35;;
58097;SDS011;43913;55.940;37.504;2023-03-08T01:05:07;32.13;;;17.42;;
58097;SDS011;43913;55.940;37.504;2023-03-08T01:07:33;30.85;;;16.60;;
58097;SDS011;43913;55.940;37.504;2023-03-08T01:09:59;38.05;;;20.65;;
58097;SDS011;43913;55.940;37.504;2023-03-08T01:12:25;31.90;;;18.10;;
58097;SDS011;43913;55.940;37.504;2023-03-08T01:14:52;34.72;;;18.80;;
58097;SDS011;43913;55.940;37.504;2023-03-08T01:17:18;31.27;;;17.80;;
58097;SDS011;43913;55.940;37.504;2023-03-08T01:19:44;38.58;;;18.92;;
58097;SDS011;43913;55.940;37.504;2023-03-08T01:22:10;32.17;;;18.15;;
58097;SDS011;43913;55.940;37.504;2023-03-08T01:24:36;32.38;;;18.70;;
58097;SDS011;43913;55.940;37.504;2023-03-08T01:27:02;35.42;;;19.13;;
58097;SDS011;43913;55.940;37.504;2023-03-08T01:29:27;33.30;;;19.17;;
58097;SDS011;43913;55.940;37.504;2023-03-08T01:31:56;37.67;;;20.83;;
58097;SDS011;43913;55.940;37.504;2023-03-08T01:34:22;36.28;;;20.77;;
58097;SDS011;43913;55.940;37.504;2023-03-08T01:36:47;32.72;;;20.38;;
58097;SDS011;43913;55.940;37.504;2023-03-08T01:39:15;36.15;;;20.65;;
58097;SDS011;43913;55.940;37.504;2023-03-08T01:41:41;41.28;;;20.83;;
58097;SDS011;43913;55.940;37.504;2023-03-08T01:44:10;36.15;;;20.50;;
58097;SDS011;43913;55.940;37.504;2023-03-08T01:46:42;34.15;;;21.27;;
58097;SDS011;43913;55.940;37.504;2023-03-08T01:51:55;31.27;;;18.58;;
58097;SDS011;43913;55.940;37.504;2023-03-08T01:56:54;38.15;;;19.10;;
58097;SDS011;43913;55.940;37.504;2023-03-08T01:59:25;36.40;;;20.38;;
58097;SDS011;43913;55.940;37.504;2023-03-08T02:01:52;35.72;;;18.98;;
58097;SDS011;43913;55.940;37.504;2023-03-08T02:04:18;39.10;;;20.30;;
58097;SDS011;43913;55.940;37.504;2023-03-08T02:06:45;40.80;;;22.27;;
58097;SDS011;43913;55.940;37.504;2023-03-08T02:09:12;37.50;;;19.53;;
58097;SDS011;43913;55.940;37.504;2023-03-08T02:11:38;39.10;;;18.93;;
58097;SDS011;43913;55.940;37.504;2023-03-08T02:14:05;38.93;;;22.07;;
58097;SDS011;43913;55.940;37.504;2023-03-08T02:16:31;41.07;;;19.57;;
58097;SDS011;43913;55.940;37.504;2023-03-08T02:18:59;39.03;;;22.77;;
58097;SDS011;43913;55.940;37.504;2023-03-08T02:21:27;41.25;;;20.33;;
58097;SDS011;43913;55.940;37.504;2023-03-08T02:23:54;41.57;;;22.30;;
58097;SDS011;43913;55.940;37.504;2023-03-08T02:26:20;34.00;;;20.90;;
58097;SDS011;43913;55.940;37.504;2023-03-08T02:28:46;38.77;;;19.50;;
58097;SDS011;43913;55.940;37.504;2023-03-08T02:31:12;33.53;;;18.20;;
58097;SDS011;43913;55.940;37.504;2023-03-08T02:33:38;35.40;;;20.33;;
58097;SDS011;43913;55.940;37.504;2023-03-08T02:36:05;42.10;;;19.50;;
58097;SDS011;43913;55.940;37.504;2023-03-08T02:38:32;40.37;;;20.50;;
58097;SDS011;43913;55.940;37.504;2023-03-08T02:40:58;38.80;;;20.17;;
58097;SDS011;43913;55.940;37.504;2023-03-08T02:43:24;41.07;;;21.33;;
58097;SDS011;43913;55.940;37.504;2023-03-08T02:45:50;38.37;;;21.53;;
58097;SDS011;43913;55.940;37.504;2023-03-08T02:48:15;36.77;;;20.77;;
58097;SDS011;43913;55.940;37.504;2023-03-08T02:50:41;36.70;;;20.67;;
58097;SDS011;43913;55.940;37.504;2023-03-08T02:53:07;38.50;;;18.80;;
58097;SDS011;43913;55.940;37.504;2023-03-08T02:55:33;39.20;;;19.93;;
58097;SDS011;43913;55.940;37.504;2023-03-08T02:58:07;36.17;;;20.70;;
58097;SDS011;43913;55.940;37.504;2023-03-08T03:00:34;37.07;;;20.00;;
58097;SDS011;43913;55.940;37.504;2023-03-08T03:03:00;37.23;;;19.90;;
58097;SDS011;43913;55.940;37.504;2023-03-08T03:05:26;35.37;;;19.77;;
58097;SDS011;43913;55.940;37.504;2023-03-08T03:07:52;40.50;;;21.33;;
58097;SDS011;43913;55.940;37.504;2023-03-08T03:10:19;32.07;;;19.03;;
58097;SDS011;43913;55.940;37.504;2023-03-08T03:12:45;38.77;;;20.33;;
58097;SDS011;43913;55.940;37.504;2023-03-08T03:15:15;33.50;;;19.67;;
58097;SDS011;43913;55.940;37.504;2023-03-08T03:17:43;35.73;;;20.17;;
58097;SDS011;43913;55.940;37.504;2023-03-08T03:20:09;36.87;;;20.27;;
58097;SDS011;43913;55.940;37.504;2023-03-08T03:22:35;33.20;;;20.77;;
58097;SDS011;43913;55.940;37.504;2023-03-08T03:25:03;35.17;;;20.97;;
58097;SDS011;43913;55.940;37.504;2023-03-08T03:27:30;39.27;;;22.37;;
58097;SDS011;43913;55.940;37.504;2023-03-08T03:29:56;40.17;;;20.77;;
58097;SDS011;43913;55.940;37.504;2023-03-08T03:32:22;40.80;;;22.40;;
58097;SDS011;43913;55.940;37.504;2023-03-08T03:34:47;35.33;;;19.87;;
58097;SDS011;43913;55.940;37.504;2023-03-08T03:37:15;37.30;;;20.80;;
58097;SDS011;43913;55.940;37.504;2023-03-08T03:39:41;43.20;;;21.63;;
58097;SDS011;43913;55.940;37.504;2023-03-08T03:42:09;38.97;;;22.03;;
58097;SDS011;43913;55.940;37.504;2023-03-08T03:44:39;31.10;;;18.23;;
58097;SDS011;43913;55.940;37.504;2023-03-08T03:47:08;34.63;;;21.00;;
58097;SDS011;43913;55.940;37.504;2023-03-08T03:49:34;36.90;;;19.90;;
58097;SDS011;43913;55.940;37.504;2023-03-08T03:51:59;33.67;;;20.03;;
58097;SDS011;43913;55.940;37.504;2023-03-08T03:54:33;38.97;;;19.97;;
58097;SDS011;43913;55.940;37.504;2023-03-08T03:56:59;34.50;;;19.83;;
58097;SDS011;43913;55.940;37.504;2023-03-08T03:59:29;38.37;;;18.73;;
58097;SDS011;43913;55.940;37.504;2023-03-08T04:01:55;37.77;;;20.27;;
58097;SDS011;43913;55.940;37.504;2023-03-08T04:04:26;32.73;;;18.93;;
58097;SDS011;43913;55.940;37.504;2023-03-08T04:06:53;37.83;;;18.93;;
58097;SDS011;43913;55.940;37.504;2023-03-08T04:09:22;44.63;;;20.90;;
58097;SDS011;43913;55.940;37.504;2023-03-08T04:11:57;32.15;;;18.38;;
58097;SDS011;43913;55.940;37.504;2023-03-08T04:14:27;36.20;;;18.73;;
58097;SDS011;43913;55.940;37.504;2023-03-08T04:16:53;34.63;;;19.63;;
58097;SDS011;43913;55.940;37.504;2023-03-08T04:19:28;31.93;;;19.73;;
58097;SDS011;43913;55.940;37.504;2023-03-08T04:21:56;35.97;;;17.50;;
58097;SDS011;43913;55.940;37.504;2023-03-08T04:24:25;37.87;;;19.53;;
58097;SDS011;43913;55.940;37.504;2023-03-08T04:26:59;32.40;;;18.00;;
58097;SDS011;43913;55.940;37.504;2023-03-08T04:29:28;38.10;;;19.70;;
58097;SDS011;43913;55.940;37.504;2023-03-08T04:31:54;38.83;;;19.37;;
58097;SDS011;43913;55.940;37.504;2023-03-08T04:34:24;37.73;;;19.30;;
58097;SDS011;43913;55.940;37.504;2023-03-08T04:36:51;42.27;;;21.20;;
58097;SDS011;43913;55.940;37.504;2023-03-08T04:39:17;35.13;;;20.53;;
58097;SDS011;43913;55.940;37.504;2023-03-08T04:41:43;35.00;;;20.50;;
58097;SDS011;43913;55.940;37.504;2023-03-08T04:44:25;38.33;;;21.33;;
58097;SDS011;43913;55.940;37.504;2023-03-08T04:46:51;36.23;;;20.17;;
58097;SDS011;43913;55.940;37.504;2023-03-08T04:49:24;39.17;;;19.03;;
58097;SDS011;43913;55.940;37.504;2023-03-08T04:51:56;34.27;;;18.90;;
58097;SDS011;43913;55.940;37.504;2023-03-08T04:54:22;33.33;;;21.07;;
58097;SDS011;43913;55.940;37.504;2023-03-08T04:56:54;37.43;;;19.73;;
58097;SDS011;43913;55.940;37.504;2023-03-08T04:59:22;29.43;;;18.53;;
58097;SDS011;43913;55.940;37.504;2023-03-08T05:01:50;34.90;;;19.47;;
58097;SDS011;43913;55.940;37.504;2023-03-08T05:04:15;34.83;;;19.57;;
58097;SDS011;43913;55.940;37.504;2023-03-08T05:06:41;37.23;;;19.70;;
58097;SDS011;43913;55.940;37.504;2023-03-08T05:09:10;32.27;;;19.30;;
58097;SDS011;43913;55.940;37.504;2023-03-08T05:11:38;39.03;;;20.77;;
58097;SDS011;43913;55.940;37.504;2023-03-08T05:14:04;32.50;;;18.00;;
58097;SDS011;43913;55.940;37.504;2023-03-08T05:16:29;35.10;;;20.00;;
58097;SDS011;43913;55.940;37.504;2023-03-08T05:18:55;34.33;;;18.07;;
58097;SDS011;43913;55.940;37.504;2023-03-08T05:21:24;30.53;;;17.90;;
58097;SDS011;43913;55.940;37.504;2023-03-08T05:23:57;27.83;;;16.90;;
58097;SDS011;43913;55.940;37.504;2023-03-08T05:26:23;25.43;;;15.13;;
58097;SDS011;43913;55.940;37.504;2023-03-08T05:28:50;30.55;;;16.77;;
58097;SDS011;43913;55.940;37.504;2023-03-08T05:31:19;27.27;;;17.23;;
58097;SDS011;43913;55.940;37.504;2023-03-08T05:33:48;27.38;;;16.73;;
58097;SDS011;43913;55.940;37.504;2023-03-08T05:36:19;31.67;;;17.95;;
58097;SDS011;43913;55.940;37.504;2023-03-08T05:38:46;30.45;;;17.98;;
58097;SDS011;43913;55.940;37.504;2023-03-08T05:41:13;31.40;;;17.47;;
58097;SDS011;43913;55.940;37.504;2023-03-08T05:43:41;33.15;;;20.52;;
58097;SDS011;43913;55.940;37.504;2023-03-08T05:46:10;29.30;;;16.60;;
58097;SDS011;43913;55.940;37.504;2023-03-08T05:48:37;37.00;;;19.60;;
58097;SDS011;43913;55.940;37.504;2023-03-08T05:51:04;33.33;;;17.48;;
58097;SDS011;43913;55.940;37.504;2023-03-08T05:53:31;34.10;;;19.58;;
58097;SDS011;43913;55.940;37.504;2023-03-08T05:55:57;37.33;;;19.02;;
58097;SDS011;43913;55.940;37.504;2023-03-08T05:58:42;30.70;;;17.75;;
58097;SDS011;43913;55.940;37.504;2023-03-08T06:01:09;33.30;;;17.55;;
58097;SDS011;43913;55.940;37.504;2023-03-08T06:03:35;30.80;;;18.55;;
58097;SDS011;43913;55.940;37.504;2023-03-08T06:06:01;34.22;;;18.00;;
58097;SDS011;43913;55.940;37.504;2023-03-08T06:08:29;35.08;;;18.58;;
58097;SDS011;43913;55.940;37.504;2023-03-08T06:10:58;35.65;;;18.50;;
58097;SDS011;43913;55.940;37.504;2023-03-08T06:13:24;33.30;;;18.08;;
58097;SDS011;43913;55.940;37.504;2023-03-08T06:15:54;32.83;;;18.27;;
58097;SDS011;43913;55.940;37.504;2023-03-08T06:18:21;35.80;;;19.00;;
58097;SDS011;43913;55.940;37.504;2023-03-08T06:21:04;35.47;;;19.77;;
58097;SDS011;43913;55.940;37.504;2023-03-08T06:23:33;30.65;;;18.85;;
58097;SDS011;43913;55.940;37.504;2023-03-08T06:26:01;34.58;;;18.88;;
58097;SDS011;43913;55.940;37.504;2023-03-08T06:28:28;36.97;;;19.45;;
58097;SDS011;43913;55.940;37.504;2023-03-08T06:30:55;35.65;;;18.63;;
58097;SDS011;43913;55.940;37.504;2023-03-08T06:33:25;37.20;;;19.65;;
58097;SDS011;43913;55.940;37.504;2023-03-08T06:38:25;40.75;;;19.98;;
58097;SDS011;43913;55.940;37.504;2023-03-08T06:40:53;35.58;;;20.45;;
58097;SDS011;43913;55.940;37.504;2023-03-08T06:43:19;30.17;;;17.45;;
58097;SDS011;43913;55.940;37.504;2023-03-08T06:45:45;34.22;;;19.05;;
58097;SDS011;43913;55.940;37.504;2023-03-08T06:48:11;32.88;;;19.05;;
58097;SDS011;43913;55.940;37.504;2023-03-08T06:50:37;30.33;;;18.08;;
58097;SDS011;43913;55.940;37.504;2023-03-08T06:53:03;30.50;;;19.60;;
58097;SDS011;43913;55.940;37.504;2023-03-08T06:55:43;32.78;;;17.80;;
58097;SDS011;43913;55.940;37.504;2023-03-08T06:58:09;29.77;;;17.85;;
58097;SDS011;43913;55.940;37.504;2023-03-08T07:00:35;30.00;;;19.42;;
58097;SDS011;43913;55.940;37.504;2023-03-08T07:03:00;29.90;;;18.08;;
58097;SDS011;43913;55.940;37.504;2023-03-08T07:05:26;31.42;;;18.58;;
58097;SDS011;43913;55.940;37.504;2023-03-08T07:07:52;23.60;;;16.30;;
58097;SDS011;43913;55.940;37.504;2023-03-08T07:10:19;29.58;;;17.00;;
58097;SDS011;43913;55.940;37.504;2023-03-08T07:12:45;28.23;;;17.02;;
58097;SDS011;43913;55.940;37.504;2023-03-08T07:15:14;20.88;;;16.05;;
58097;SDS011;43913;55.940;37.504;2023-03-08T07:17:41;22.77;;;14.10;;
58097;SDS011;43913;55.940;37.504;2023-03-08T07:20:08;22.10;;;12.63;;
58097;SDS011;43913;55.940;37.504;2023-03-08T07:22:34;15.43;;;11.63;;
58097;SDS011;43913;55.940;37.504;2023-03-08T07:25:00;15.73;;;12.05;;
58097;SDS011;43913;55.940;37.504;2023-03-08T07:27:26;14.35;;;10.93;;
58097;SDS011;43913;55.940;37.504;2023-03-08T07:29:51;14.68;;;12.20;;
58097;SDS011;43913;55.940;37.504;2023-03-08T07:32:17;20.40;;;13.35;;
58097;SDS011;43913;55.940;37.504;2023-03-08T07:34:43;18.42;;;12.52;;
58097;SDS011;43913;55.940;37.504;2023-03-08T07:37:12;18.90;;;10.65;;
58097;SDS011;43913;55.940;37.504;2023-03-08T07:39:39;15.93;;;11.50;;
58097;SDS011;43913;55.940;37.504;2023-03-08T07:42:05;19.00;;;13.90;;
58097;SDS011;43913;55.940;37.504;2023-03-08T07:44:31;21.48;;;13.63;;
58097;SDS011;43913;55.940;37.504;2023-03-08T07:46:56;22.15;;;14.65;;
58097;SDS011;43913;55.940;37.504;2023-03-08T07:49:22;23.13;;;15.05;;
58097;SDS011;43913;55.940;37.504;2023-03-08T07:51:48;23.60;;;15.70;;
58097;SDS011;43913;55.940;37.504;2023-03-08T07:54:15;23.88;;;14.90;;
58097;SDS011;43913;55.940;37.504;2023-03-08T07:56:41;23.63;;;16.88;;
58097;SDS011;43913;55.940;37.504;2023-03-08T07:59:06;20.73;;;14.73;;
58097;SDS011;43913;55.940;37.504;2023-03-08T08:01:32;19.48;;;13.25;;
58097;SDS011;43913;55.940;37.504;2023-03-08T08:03:58;20.77;;;15.30;;
58097;SDS011;43913;55.940;37.504;2023-03-08T08:06:24;18.60;;;13.40;;
58097;SDS011;43913;55.940;37.504;2023-03-08T08:08:50;16.33;;;12.65;;
58097;SDS011;43913;55.940;37.504;2023-03-08T08:11:16;20.67;;;13.95;;
58097;SDS011;43913;55.940;37.504;2023-03-08T08:13:44;19.10;;;14.48;;
